Time;durP1;ratioP1;P1;durP2;ratioP2;P2;SDS_P1;SDS_P2;PMS_P1;PMS_P2;Temp;Humidity;BMP_temperature;BMP_pressure;BME280_temperature;BME280_humidity;BME280_pressure;Samples;Min_cycle;Max_cycle;Signal;HPM_P1;HPM_P2
2022/06/08 00:01:06;;;;;;;15.95;7.75;;;16.70;99.90;;;;;;5230102;28;20021;-73
2022/06/08 00:03:54;;;;;;;14.45;7.22;;;16.60;99.90;;;;;;5229902;28;20032;-74
2022/06/08 00:06:25;;;;;;;13.02;7.18;;;16.60;99.90;;;;;;5229752;28;20032;-74
2022/06/08 00:08:56;;;;;;;11.98;7.22;;;16.60;99.90;;;;;;5229651;28;20021;-74
2022/06/08 00:11:26;;;;;;;11.93;7.22;;;16.70;99.90;;;;;;5229800;28;20449;-74
2022/06/08 00:13:57;;;;;;;17.10;7.65;;;16.70;99.90;;;;;;5229715;28;20044;-73
2022/06/08 00:16:28;;;;;;;10.75;7.32;;;16.50;99.90;;;;;;5229472;28;20083;-74
2022/06/08 00:18:59;;;;;;;12.45;6.80;;;16.60;99.90;;;;;;5229363;28;20074;-74
2022/06/08 00:21:30;;;;;;;10.38;6.63;;;16.50;99.90;;;;;;5229179;28;20049;-73
2022/06/08 00:24:00;;;;;;;9.73;7.38;;;16.60;99.90;;;;;;5229427;28;20037;-73
2022/06/08 00:26:32;;;;;;;10.85;7.35;;;16.50;99.90;;;;;;5229330;28;20044;-73
2022/06/08 00:29:04;;;;;;;12.63;7.55;;;16.50;99.90;;;;;;5229278;28;20028;-73
2022/06/08 00:31:34;;;;;;;9.57;7.97;;;16.60;99.90;;;;;;5229272;28;20025;-74
2022/06/08 00:34:05;;;;;;;8.90;7.13;;;16.70;99.90;;;;;;5229138;28;20542;-73
2022/06/08 00:36:36;;;;;;;12.18;7.38;;;16.60;99.90;;;;;;5229316;28;20029;-73
2022/06/08 00:39:07;;;;;;;11.43;7.68;;;16.60;99.90;;;;;;5228957;28;20039;-73
2022/06/08 00:41:43;;;;;;;14.38;8.02;;;16.60;99.90;;;;;;5229152;28;20040;-73
2022/06/08 00:44:23;;;;;;;12.38;7.22;;;16.50;99.90;;;;;;5211296;28;20528;-74
2022/06/08 00:46:55;;;;;;;11.45;7.93;;;16.60;99.90;;;;;;5228847;28;20029;-76
2022/06/08 00:49:57;;;;;;;11.68;7.35;;;16.50;99.90;;;;;;5228937;28;20040;-76
2022/06/08 00:52:29;;;;;;;15.13;6.93;;;16.60;99.90;;;;;;5228209;28;20154;-76
2022/06/08 00:55:06;;;;;;;12.80;7.72;;;16.60;99.90;;;;;;5228778;28;20060;-74
2022/06/08 00:57:47;;;;;;;8.93;7.50;;;16.50;99.90;;;;;;5228842;28;20476;-73
2022/06/08 01:00:24;;;;;;;18.33;7.95;;;16.40;99.90;;;;;;5228749;28;20032;-74
2022/06/08 01:02:55;;;;;;;15.10;9.13;;;16.50;99.90;;;;;;5228669;28;20020;-73
2022/06/08 01:05:30;;;;;;;14.75;8.35;;;16.50;99.90;;;;;;5228768;28;20380;-74
2022/06/08 01:08:18;;;;;;;12.30;8.20;;;16.70;99.90;;;;;;5228786;28;20562;-74
2022/06/08 01:10:53;;;;;;;14.23;7.95;;;16.70;99.90;;;;;;5228467;28;20110;-74
2022/06/08 01:13:26;;;;;;;15.93;7.65;;;16.80;99.90;;;;;;5228349;28;20469;-73
2022/06/08 01:16:02;;;;;;;15.95;8.27;;;16.80;99.90;;;;;;5228503;28;20056;-74
2022/06/08 01:18:34;;;;;;;13.93;8.18;;;16.70;99.90;;;;;;5228447;28;20354;-74
2022/06/08 01:21:20;;;;;;;13.98;7.60;;;16.90;99.90;;;;;;5228240;28;20031;-74
2022/06/08 01:23:56;;;;;;;12.07;7.53;;;16.90;99.90;;;;;;5207818;28;20041;-75
2022/06/08 01:26:27;;;;;;;11.38;7.22;;;16.90;99.90;;;;;;5207654;28;20025;-74
2022/06/08 01:29:21;;;;;;;13.60;7.18;;;17.00;99.90;;;;;;5207381;28;20413;-77
2022/06/08 01:32:07;;;;;;;10.00;7.28;;;16.90;99.90;;;;;;5207407;28;20029;-73
2022/06/08 01:34:41;;;;;;;15.80;7.55;;;16.90;99.90;;;;;;5207515;28;20033;-74
2022/06/08 01:37:36;;;;;;;9.60;7.40;;;16.90;99.90;;;;;;5207433;28;20477;-73
2022/06/08 01:40:12;;;;;;;11.00;7.57;;;16.90;99.90;;;;;;5207440;28;20051;-74
2022/06/08 01:43:05;;;;;;;8.77;7.78;;;17.00;99.90;;;;;;5207439;28;20064;-73
2022/06/08 01:45:53;;;;;;;13.02;7.70;;;16.90;99.90;;;;;;5207429;28;20338;-73
2022/06/08 01:48:32;;;;;;;15.40;8.75;;;16.80;99.90;;;;;;5207332;28;20029;-74
2022/06/08 01:51:15;;;;;;;11.82;8.98;;;16.90;99.90;;;;;;5207143;28;20112;-73
2022/06/08 01:54:07;;;;;;;14.90;8.20;;;16.70;99.90;;;;;;5207116;28;20416;-74
2022/06/08 01:57:04;;;;;;;10.63;7.88;;;16.90;99.90;;;;;;5207167;28;20031;-73
2022/06/08 02:00:07;;;;;;;13.38;8.38;;;16.90;99.90;;;;;;5188939;28;20033;-73
2022/06/08 02:03:00;;;;;;;12.32;8.18;;;16.90;99.90;;;;;;5185675;28;20037;-73
2022/06/08 02:05:49;;;;;;;14.48;8.68;;;17.00;99.90;;;;;;5206919;28;20029;-76
2022/06/08 02:08:32;;;;;;;9.35;7.50;;;16.90;99.90;;;;;;5206858;28;20025;-75
2022/06/08 02:11:14;;;;;;;11.95;7.95;;;16.90;99.90;;;;;;5206904;28;20018;-74
2022/06/08 02:14:17;;;;;;;9.18;8.23;;;17.00;99.90;;;;;;5206689;28;20045;-74
2022/06/08 02:16:47;;;;;;;13.27;8.10;;;17.00;99.90;;;;;;5206763;28;20021;-74
2022/06/08 02:19:42;;;;;;;13.35;8.90;;;16.90;99.90;;;;;;5206859;28;20030;-74
2022/06/08 02:22:31;;;;;;;11.13;8.00;;;17.00;99.90;;;;;;5215231;28;20076;-75
2022/06/08 02:25:09;;;;;;;9.13;8.23;;;16.90;99.90;;;;;;5227526;28;20037;-74
2022/06/08 02:28:03;;;;;;;13.10;8.02;;;16.80;99.90;;;;;;5227457;28;20033;-74
2022/06/08 02:30:42;;;;;;;10.90;8.48;;;16.80;99.90;;;;;;5209251;28;20033;-73
2022/06/08 02:36:19;;;;;;;11.55;8.60;;;17.00;99.90;;;;;;5227627;28;20033;-73
2022/06/08 02:39:27;;;;;;;10.73;8.07;;;17.00;99.90;;;;;;5227206;28;20100;-74
2022/06/08 02:42:05;;;;;;;11.95;8.25;;;17.00;99.90;;;;;;5213186;28;20400;-74
2022/06/08 02:44:39;;;;;;;11.57;8.07;;;16.80;99.90;;;;;;5227173;28;20391;-73
2022/06/08 02:47:31;;;;;;;13.50;8.80;;;16.90;99.90;;;;;;5209255;28;20119;-73
2022/06/08 02:50:14;;;;;;;10.77;8.43;;;16.80;99.90;;;;;;5227022;28;20060;-73
2022/06/08 02:52:47;;;;;;;15.70;9.95;;;16.80;99.90;;;;;;5226889;28;20055;-74
2022/06/08 02:55:49;;;;;;;14.93;10.32;;;16.90;99.90;;;;;;5227134;28;20099;-73
2022/06/08 02:58:30;;;;;;;12.70;9.52;;;17.00;99.90;;;;;;5226880;28;20033;-77
2022/06/08 03:01:10;;;;;;;15.00;9.32;;;17.00;99.90;;;;;;5226897;28;20025;-73
2022/06/08 03:03:52;;;;;;;15.57;10.10;;;17.20;99.90;;;;;;5209408;28;20554;-73
2022/06/08 03:06:33;;;;;;;14.65;9.15;;;17.10;99.90;;;;;;5227140;28;20021;-74
2022/06/08 03:09:06;;;;;;;14.88;9.50;;;17.20;99.90;;;;;;5227124;28;20029;-73
2022/06/08 03:11:41;;;;;;;10.70;8.52;;;17.10;99.90;;;;;;5228368;28;20029;-73
2022/06/08 03:14:15;;;;;;;12.30;7.97;;;17.10;99.90;;;;;;5230928;28;20564;-73
2022/06/08 03:16:58;;;;;;;13.35;8.45;;;17.20;99.90;;;;;;5230859;28;20024;-74
2022/06/08 03:19:31;;;;;;;16.30;8.25;;;17.20;99.90;;;;;;5230564;28;20032;-74
2022/06/08 03:22:03;;;;;;;16.38;8.02;;;17.30;99.90;;;;;;5230461;28;20037;-74
2022/06/08 03:24:34;;;;;;;10.15;9.25;;;17.30;99.90;;;;;;5230696;28;20095;-73
2022/06/08 03:27:08;;;;;;;11.02;9.23;;;17.30;99.90;;;;;;5230656;28;20408;-76
2022/06/08 03:29:39;;;;;;;12.82;9.00;;;17.40;99.90;;;;;;5230662;28;20031;-74
2022/06/08 03:32:10;;;;;;;11.50;8.75;;;17.30;99.90;;;;;;5230483;28;20017;-75
2022/06/08 03:34:40;;;;;;;12.40;8.63;;;17.30;99.90;;;;;;5230436;28;20041;-76
2022/06/08 03:37:11;;;;;;;10.40;9.23;;;17.40;99.90;;;;;;5230501;28;20519;-74
2022/06/08 03:39:42;;;;;;;15.85;9.35;;;17.50;99.90;;;;;;5230386;28;20473;-73
2022/06/08 03:42:13;;;;;;;9.63;8.73;;;17.40;99.90;;;;;;5230441;28;20116;-74
2022/06/08 03:44:45;;;;;;;10.85;8.18;;;17.50;99.90;;;;;;5230268;28;20017;-74
2022/06/08 03:47:22;;;;;;;11.98;9.25;;;17.60;99.90;;;;;;5230291;28;20036;-77
2022/06/08 03:49:55;;;;;;;15.88;9.40;;;17.60;99.90;;;;;;5212284;28;20136;-74
2022/06/08 03:52:31;;;;;;;13.50;10.82;;;17.60;99.90;;;;;;5229846;28;20021;-74
2022/06/08 03:55:06;;;;;;;16.77;9.98;;;17.60;99.90;;;;;;5230092;28;20044;-74
2022/06/08 03:57:38;;;;;;;11.30;10.07;;;17.40;99.90;;;;;;5230084;28;20365;-74
2022/06/08 04:00:10;;;;;;;12.80;10.13;;;17.50;99.90;;;;;;5229970;28;20598;-77
2022/06/08 04:02:41;;;;;;;11.55;10.45;;;17.60;99.90;;;;;;5229941;28;20115;-74
2022/06/08 04:05:12;;;;;;;16.98;10.38;;;17.50;99.90;;;;;;5230056;28;20025;-74
2022/06/08 04:07:43;;;;;;;13.38;11.65;;;17.60;99.90;;;;;;5229905;28;20051;-76
2022/06/08 04:10:14;;;;;;;12.68;11.50;;;17.60;99.90;;;;;;5229700;28;20033;-77
2022/06/08 04:12:45;;;;;;;14.82;11.35;;;17.50;99.90;;;;;;5229594;28;20058;-74
2022/06/08 04:15:41;;;;;;;13.95;10.90;;;17.50;99.90;;;;;;5229729;28;20082;-73
2022/06/08 04:18:07;;;;;;;12.90;11.52;;;17.60;99.90;;;;;;5229256;28;20055;-76
2022/06/08 04:20:39;;;;;;;15.13;11.25;;;17.60;99.90;;;;;;5229331;28;20025;-76
2022/06/08 04:23:10;;;;;;;11.95;10.75;;;17.60;99.90;;;;;;5228871;28;20861;-76
2022/06/08 04:25:42;;;;;;;17.65;11.25;;;17.60;99.90;;;;;;5229604;28;20353;-74
2022/06/08 04:28:13;;;;;;;13.85;11.85;;;17.60;99.90;;;;;;5229380;28;20028;-74
2022/06/08 04:30:44;;;;;;;15.80;11.35;;;17.70;99.90;;;;;;5229166;28;20021;-74
2022/06/08 04:33:16;;;;;;;16.10;11.55;;;17.70;99.90;;;;;;5229179;28;20500;-74
2022/06/08 04:35:47;;;;;;;12.75;9.82;;;17.70;99.90;;;;;;5229323;28;20079;-74
2022/06/08 04:38:19;;;;;;;18.98;10.25;;;17.80;99.90;;;;;;5229165;28;20040;-75
2022/06/08 04:40:50;;;;;;;11.77;9.40;;;18.20;99.90;;;;;;5229048;28;20473;-74
2022/06/08 04:43:20;;;;;;;9.93;8.93;;;18.60;99.90;;;;;;5229003;28;20020;-76
2022/06/08 04:45:51;;;;;;;8.60;6.88;;;18.80;99.90;;;;;;5229442;28;20496;-76
2022/06/08 04:48:22;;;;;;;8.68;6.53;;;19.00;99.90;;;;;;5229151;28;20112;-75
2022/06/08 04:50:53;;;;;;;8.63;5.90;;;19.10;99.90;;;;;;5228636;28;20025;-75
2022/06/08 04:53:24;;;;;;;9.27;6.78;;;19.20;99.90;;;;;;5228795;28;20453;-73
2022/06/08 04:55:54;;;;;;;7.10;5.22;;;19.60;99.90;;;;;;5228911;28;20361;-74
2022/06/08 04:58:26;;;;;;;6.18;5.55;;;19.50;99.90;;;;;;5228946;28;20095;-74
2022/06/08 05:00:57;;;;;;;7.45;5.80;;;19.40;99.90;;;;;;5218807;28;20017;-75
2022/06/08 05:03:29;;;;;;;8.23;5.72;;;19.30;99.90;;;;;;5208233;28;20362;-75
2022/06/08 05:06:01;;;;;;;12.00;6.05;;;19.30;99.90;;;;;;5207915;28;20017;-75
2022/06/08 05:08:34;;;;;;;7.03;5.38;;;19.40;99.90;;;;;;5208032;28;20032;-76
2022/06/08 05:11:05;;;;;;;9.65;5.63;;;19.40;99.90;;;;;;5207930;28;20018;-73
2022/06/08 05:13:36;;;;;;;10.35;4.63;;;19.40;99.90;;;;;;5190112;28;20044;-75
2022/06/08 05:16:07;;;;;;;7.40;4.70;;;19.40;99.90;;;;;;5207718;28;20021;-74
2022/06/08 05:18:39;;;;;;;5.88;4.13;;;19.60;99.90;;;;;;5207897;28;20037;-74
2022/06/08 05:21:09;;;;;;;5.43;4.10;;;19.70;99.90;;;;;;5207514;28;20032;-76
2022/06/08 05:23:43;;;;;;;7.00;3.90;;;19.80;99.90;;;;;;5186679;28;20042;-74
2022/06/08 05:26:13;;;;;;;5.93;3.50;;;19.90;99.90;;;;;;5187240;28;20103;-76
2022/06/08 05:28:44;;;;;;;4.10;3.33;;;19.70;99.90;;;;;;5187109;28;20501;-74
2022/06/08 05:31:15;;;;;;;5.85;3.55;;;19.60;99.90;;;;;;5185608;28;20377;-75
2022/06/08 05:33:46;;;;;;;9.00;3.53;;;19.60;99.90;;;;;;5197162;28;20436;-75
2022/06/08 05:36:17;;;;;;;4.85;3.08;;;19.60;99.90;;;;;;5204980;28;20492;-77
2022/06/08 05:38:48;;;;;;;4.03;2.88;;;19.60;99.90;;;;;;5186937;28;20025;-75
2022/06/08 05:41:19;;;;;;;4.97;3.22;;;19.70;99.90;;;;;;5187102;28;20029;-76
2022/06/08 05:43:49;;;;;;;7.13;2.85;;;20.10;99.90;;;;;;5187068;28;20018;-74
2022/06/08 05:46:20;;;;;;;5.90;3.00;;;20.50;99.90;;;;;;5186794;28;20036;-75
2022/06/08 05:48:51;;;;;;;6.07;2.78;;;20.60;99.90;;;;;;5186877;28;20026;-75
2022/06/08 05:51:22;;;;;;;4.82;2.50;;;20.70;99.90;;;;;;5186899;28;20034;-75
2022/06/08 05:53:52;;;;;;;5.50;2.55;;;20.50;99.90;;;;;;5186911;28;20128;-74
2022/06/08 05:56:23;;;;;;;6.38;2.30;;;20.60;99.90;;;;;;5186823;28;20139;-74
2022/06/08 05:58:54;;;;;;;4.38;2.63;;;20.40;99.90;;;;;;5186662;28;20050;-75
2022/06/08 06:01:25;;;;;;;5.55;2.17;;;20.40;99.90;;;;;;5183469;28;20038;-73
2022/06/08 06:03:55;;;;;;;3.50;2.33;;;20.30;99.90;;;;;;5194733;28;20029;-75
2022/06/08 06:06:26;;;;;;;5.07;2.55;;;20.50;99.90;;;;;;5185347;28;20429;-74
2022/06/08 06:08:57;;;;;;;4.18;1.70;;;20.60;99.90;;;;;;5189395;28;20017;-74
2022/06/08 06:11:28;;;;;;;4.25;1.70;;;20.80;99.90;;;;;;5186608;28;20437;-74
2022/06/08 06:13:59;;;;;;;5.30;2.20;;;20.90;99.90;;;;;;5186484;28;20528;-76
2022/06/08 06:16:30;;;;;;;4.97;1.90;;;21.50;99.90;;;;;;5186440;28;20033;-74
2022/06/08 06:19:01;;;;;;;3.63;2.28;;;21.10;99.90;;;;;;5186237;28;20192;-74
2022/06/08 06:21:32;;;;;;;3.38;2.08;;;20.90;99.90;;;;;;5188858;28;20104;-74
2022/06/08 06:24:07;;;;;;;3.67;2.00;;;20.50;99.90;;;;;;5206822;28;20037;-76
2022/06/08 06:26:38;;;;;;;2.65;1.77;;;20.50;99.90;;;;;;5206618;28;20856;-74
2022/06/08 06:29:10;;;;;;;4.55;3.20;;;20.70;99.90;;;;;;5206844;28;20061;-73
2022/06/08 06:31:48;;;;;;;4.40;2.92;;;20.70;99.90;;;;;;5199743;28;20026;-75
2022/06/08 06:34:21;;;;;;;5.53;2.80;;;20.90;99.90;;;;;;5203963;28;20042;-74
2022/06/08 06:36:54;;;;;;;7.95;2.60;;;20.60;99.90;;;;;;5195114;28;20565;-74
2022/06/08 06:39:26;;;;;;;4.18;2.88;;;20.50;99.90;;;;;;5205583;28;20037;-74
2022/06/08 06:42:02;;;;;;;5.78;2.55;;;20.60;99.90;;;;;;5206525;28;20021;-74
2022/06/08 06:44:32;;;;;;;6.15;2.40;;;20.60;99.90;;;;;;5206608;28;20025;-74
2022/06/08 06:47:03;;;;;;;4.03;2.10;;;21.00;99.90;;;;;;5210866;28;20026;-77
2022/06/08 06:49:34;;;;;;;3.92;2.30;;;21.00;99.90;;;;;;5210600;28;20021;-77
2022/06/08 06:52:05;;;;;;;3.65;2.10;;;21.00;99.90;;;;;;5210729;28;20359;-74
2022/06/08 06:54:36;;;;;;;4.97;1.77;;;21.30;99.90;;;;;;5210288;28;20041;-74
2022/06/08 06:57:07;;;;;;;9.50;2.28;;;21.90;99.90;;;;;;5221662;28;20047;-74
2022/06/08 06:59:39;;;;;;;4.85;1.83;;;22.00;99.90;;;;;;5230727;28;20037;-74
2022/06/08 07:02:13;;;;;;;5.05;1.98;;;22.40;99.90;;;;;;5210276;28;20389;-73
2022/06/08 07:04:44;;;;;;;5.25;2.15;;;22.30;99.90;;;;;;5206996;28;20034;-76
2022/06/08 07:07:15;;;;;;;6.43;2.00;;;23.00;99.90;;;;;;5192296;28;20049;-74
2022/06/08 07:09:45;;;;;;;2.33;1.80;;;23.00;99.90;;;;;;5210048;28;20113;-74
2022/06/08 07:12:16;;;;;;;3.50;1.50;;;22.90;99.90;;;;;;5192624;28;20121;-76
2022/06/08 07:14:47;;;;;;;5.47;1.75;;;22.00;99.90;;;;;;5209480;28;20099;-76
2022/06/08 07:17:18;;;;;;;2.75;1.60;;;22.30;99.90;;;;;;5213534;28;20017;-75
2022/06/08 07:19:49;;;;;;;4.13;1.92;;;22.80;99.90;;;;;;5227702;28;20029;-75
2022/06/08 07:22:20;;;;;;;2.67;1.65;;;22.20;99.90;;;;;;5230083;28;20041;-75
2022/06/08 07:24:51;;;;;;;6.22;2.03;;;22.30;99.90;;;;;;5230518;28;20083;-77
2022/06/08 07:27:22;;;;;;;3.30;1.92;;;22.40;99.90;;;;;;5201044;28;20487;-75
2022/06/08 07:29:53;;;;;;;4.63;2.15;;;22.40;99.90;;;;;;5192185;28;20033;-75
2022/06/08 07:32:24;;;;;;;4.10;2.40;;;22.10;99.90;;;;;;5209728;28;20033;-74
2022/06/08 07:34:55;;;;;;;8.90;3.25;;;21.90;99.90;;;;;;5209695;28;20477;-75
2022/06/08 07:37:26;;;;;;;9.77;3.40;;;21.60;99.90;;;;;;5210217;28;20404;-76
2022/06/08 07:39:57;;;;;;;6.88;2.42;;;21.60;99.90;;;;;;5226717;28;20024;-76
2022/06/08 07:42:28;;;;;;;8.32;3.00;;;21.50;99.90;;;;;;5217943;28;20404;-77
2022/06/08 07:44:58;;;;;;;6.68;2.90;;;21.80;99.90;;;;;;5209550;28;20048;-77
2022/06/08 07:47:29;;;;;;;4.53;2.28;;;22.30;99.90;;;;;;5209769;28;20029;-74
2022/06/08 07:50:00;;;;;;;5.00;2.10;;;22.40;99.90;;;;;;5209519;28;20428;-78
2022/06/08 07:52:30;;;;;;;7.05;2.80;;;22.40;99.90;;;;;;5213173;28;20079;-74
2022/06/08 07:55:01;;;;;;;6.68;2.42;;;22.20;99.90;;;;;;5198703;28;20076;-74
2022/06/08 07:57:33;;;;;;;9.90;2.78;;;21.80;99.90;;;;;;5206109;28;20021;-74
2022/06/08 08:00:05;;;;;;;7.03;3.00;;;21.50;99.90;;;;;;5209828;28;20493;-75
2022/06/08 08:02:36;;;;;;;4.97;2.65;;;21.30;99.90;;;;;;5181166;28;20022;-74
2022/06/08 08:05:09;;;;;;;5.75;2.67;;;20.70;99.90;;;;;;5209087;28;20438;-75
2022/06/08 08:07:41;;;;;;;5.10;2.78;;;20.70;99.90;;;;;;5209260;28;20373;-74
2022/06/08 08:10:16;;;;;;;3.47;2.70;;;20.60;99.90;;;;;;5209036;28;20048;-75
2022/06/08 08:12:48;;;;;;;5.97;3.33;;;20.60;99.90;;;;;;5208971;28;20029;-74
2022/06/08 08:15:19;;;;;;;7.10;3.33;;;20.60;99.90;;;;;;5209092;28;20033;-74
2022/06/08 08:17:49;;;;;;;5.13;3.10;;;20.60;99.90;;;;;;5209374;28;20029;-75
2022/06/08 08:20:22;;;;;;;4.32;3.08;;;20.60;99.90;;;;;;5229604;28;20009;-74
2022/06/08 08:22:53;;;;;;;8.68;3.63;;;20.80;99.90;;;;;;5229296;28;20064;-74
2022/06/08 08:25:25;;;;;;;5.25;3.95;;;20.90;99.90;;;;;;5229275;28;20029;-74
2022/06/08 08:27:57;;;;;;;14.95;4.38;;;20.70;99.90;;;;;;5204877;28;20021;-73
2022/06/08 08:30:30;;;;;;;7.95;4.57;;;20.90;99.90;;;;;;5208811;28;20079;-74
2022/06/08 08:33:01;;;;;;;7.50;3.92;;;21.00;99.90;;;;;;5192368;28;20034;-76
2022/06/08 08:35:32;;;;;;;9.98;3.63;;;20.80;99.90;;;;;;5229471;28;20500;-75
2022/06/08 08:38:03;;;;;;;7.60;3.53;;;21.00;99.90;;;;;;5228851;28;20025;-75
2022/06/08 08:40:51;;;;;;;10.30;6.28;;;20.90;99.90;;;;;;5224360;28;20027;-74
2022/06/08 08:43:25;;;;;;;6.55;3.30;;;21.40;99.90;;;;;;5208772;28;20029;-77
2022/06/08 08:46:06;;;;;;;6.50;2.72;;;21.90;99.90;;;;;;5216885;28;20112;-78
2022/06/08 08:48:46;;;;;;;7.65;3.33;;;22.00;99.90;;;;;;5228719;28;20060;-78
2022/06/08 08:51:41;;;;;;;6.82;2.90;;;22.00;99.90;;;;;;5228998;28;20684;-79
2022/06/08 08:54:38;;;;;;;5.78;2.50;;;22.00;99.90;;;;;;5227591;28;20063;-79
2022/06/08 08:57:12;;;;;;;5.75;2.38;;;22.10;99.90;;;;;;5208430;28;20489;-78
2022/06/08 08:59:45;;;;;;;5.07;2.50;;;22.30;99.90;;;;;;5208376;28;20454;-77
2022/06/08 09:03:14;;;;;;;3.28;1.77;;;22.50;99.90;;;;;;5194236;28;20076;-78
2022/06/08 09:05:21;;;;;;;3.08;1.80;;;22.50;99.90;;;;;;5203414;28;20036;-78
2022/06/08 09:07:52;;;;;;;5.97;1.70;;;23.10;99.90;;;;;;5207710;28;20029;-79
2022/06/08 09:10:25;;;;;;;5.75;1.85;;;23.10;99.90;;;;;;5207955;28;20021;-78
2022/06/08 09:12:56;;;;;;;5.25;1.80;;;23.20;99.90;;;;;;5212601;28;20039;-77
2022/06/08 09:15:57;;;;;;;6.78;2.30;;;23.60;99.90;;;;;;5228141;28;20431;-76
2022/06/08 09:18:33;;;;;;;6.60;1.90;;;23.60;99.90;;;;;;5224681;28;20035;-75
2022/06/08 09:21:36;;;;;;;3.67;1.67;;;23.50;99.90;;;;;;5189994;28;20037;-74
2022/06/08 09:24:15;;;;;;;4.05;2.00;;;23.40;99.90;;;;;;5134492;28;20046;-75
2022/06/08 09:26:47;;;;;;;3.70;1.63;;;23.50;99.90;;;;;;5203298;28;20075;-76
2022/06/08 09:29:26;;;;;;;5.63;2.03;;;24.10;99.90;;;;;;5207889;28;20021;-75
2022/06/08 09:31:57;;;;;;;15.52;2.28;;;24.00;99.90;;;;;;5208669;28;20036;-76
2022/06/08 09:34:32;;;;;;;23.13;3.67;;;23.90;99.90;;;;;;5207883;28;20033;-76
2022/06/08 09:37:11;;;;;;;8.50;2.00;;;24.00;99.90;;;;;;5207204;28;20127;-76
2022/06/08 09:39:45;;;;;;;9.65;1.85;;;24.00;99.90;;;;;;5179766;28;20029;-75
2022/06/08 09:42:24;;;;;;;4.28;1.67;;;24.50;99.90;;;;;;5203013;28;20033;-77
2022/06/08 09:45:14;;;;;;;;;;;24.40;99.90;;;;;;5197780;28;20037;-75
2022/06/08 09:51:31;;;;;;;3.90;1.70;;;23.80;99.90;;;;;;5180223;28;20088;-80
2022/06/08 09:54:18;;;;;;;5.78;2.25;;;23.90;99.90;;;;;;5086612;29;20127;-80
2022/06/08 09:57:02;;;;;;;6.00;2.13;;;24.20;99.90;;;;;;5192080;28;20038;-81
2022/06/08 10:00:12;;;;;;;3.08;1.45;;;24.40;99.90;;;;;;5206850;28;20112;-82
2022/06/08 10:02:46;;;;;;;6.75;1.92;;;24.40;99.90;;;;;;5202250;28;20118;-82
2022/06/08 10:05:39;;;;;;;5.25;1.80;;;24.50;99.90;;;;;;5188590;28;20026;-76
2022/06/08 10:08:16;;;;;;;5.10;1.70;;;24.30;99.90;;;;;;5193140;28;20037;-80
2022/06/08 10:10:56;;;;;;;5.22;1.67;;;24.30;99.90;;;;;;5176681;28;20028;-81
2022/06/08 10:13:45;;;;;;;3.90;1.45;;;25.20;99.90;;;;;;5188353;28;20041;-79
2022/06/08 10:16:23;;;;;;;4.07;1.50;;;24.90;99.90;;;;;;5185378;28;20344;-79
2022/06/08 10:18:57;;;;;;;4.50;1.67;;;25.30;99.90;;;;;;5168853;28;20109;-76
2022/06/08 10:21:40;;;;;;;6.05;2.10;;;24.50;99.90;;;;;;5188207;28;20024;-77
2022/06/08 10:24:45;;;;;;;4.53;1.70;;;24.20;99.90;;;;;;5204110;28;20057;-79
2022/06/08 10:27:45;;;;;;;2.33;1.52;;;24.10;99.90;;;;;;5200274;28;20021;-78
2022/06/08 10:30:34;;;;;;;4.45;1.55;;;23.80;99.90;;;;;;5215867;28;20033;-79
2022/06/08 10:33:19;;;;;;;4.18;1.63;;;25.10;99.90;;;;;;5197880;28;20038;-72
2022/06/08 10:35:57;;;;;;;4.90;1.60;;;25.30;99.90;;;;;;5195074;28;20120;-72
2022/06/08 10:38:42;;;;;;;5.97;2.60;;;23.80;99.90;;;;;;5209622;28;20013;-79
2022/06/08 10:44:44;;;;;;;5.18;1.80;;;23.90;99.90;;;;;;5206869;28;20091;-73
2022/06/08 10:47:16;;;;;;;4.78;1.90;;;23.30;99.90;;;;;;5175874;28;20050;-75
2022/06/08 10:49:53;;;;;;;4.45;1.95;;;23.20;99.90;;;;;;5206408;28;20097;-75
2022/06/08 10:52:51;;;;;;;5.05;2.03;;;23.90;99.90;;;;;;5206153;28;20083;-76
2022/06/08 10:55:24;;;;;;;3.60;1.52;;;24.50;99.90;;;;;;5209130;28;20050;-77
2022/06/08 10:58:17;;;;;;;3.35;1.60;;;24.90;99.90;;;;;;5212862;28;20377;-76
2022/06/08 11:01:19;;;;;;;6.65;1.85;;;24.70;99.90;;;;;;5203680;28;20036;-76
2022/06/08 11:03:57;;;;;;;5.40;1.75;;;25.10;99.90;;;;;;5203153;28;20021;-76
2022/06/08 11:07:06;;;;;;;6.05;1.42;;;24.90;99.90;;;;;;5217738;28;20381;-80
2022/06/08 11:09:43;;;;;;;3.92;1.25;;;25.20;99.90;;;;;;5130414;28;20034;-78
2022/06/08 11:12:21;;;;;;;3.92;1.65;;;24.80;99.90;;;;;;5217054;28;20058;-78
2022/06/08 11:14:59;;;;;;;6.15;1.83;;;24.30;99.90;;;;;;5224761;28;20041;-74
2022/06/08 11:17:45;;;;;;;4.30;1.70;;;23.80;99.90;;;;;;5206407;28;20022;-74
2022/06/08 11:20:50;;;;;;;5.30;1.92;;;24.70;99.90;;;;;;5206163;28;20029;-74
2022/06/08 11:23:33;;;;;;;5.43;1.90;;;24.70;99.90;;;;;;5185642;28;20494;-74
2022/06/08 11:26:10;;;;;;;7.45;2.08;;;24.90;99.90;;;;;;5185835;28;20022;-74
2022/06/08 11:28:48;;;;;;;3.88;1.60;;;25.30;99.90;;;;;;5207761;28;20060;-73
2022/06/08 11:31:29;;;;;;;3.60;1.40;;;24.60;99.90;;;;;;5213685;28;20029;-73
2022/06/08 11:34:23;;;;;;;4.72;1.73;;;23.70;99.90;;;;;;5200827;28;20433;-74
2022/06/08 11:37:17;;;;;;;5.15;1.58;;;23.80;99.90;;;;;;5230085;28;20078;-80
2022/06/08 11:40:10;;;;;;;4.43;1.48;;;24.60;99.90;;;;;;5212797;28;20028;-73
2022/06/08 11:43:16;;;;;;;7.50;1.95;;;24.50;99.90;;;;;;5230468;28;20032;-76
2022/06/08 11:46:00;;;;;;;2.75;1.55;;;24.50;99.90;;;;;;5230182;28;20013;-75
2022/06/08 11:48:49;;;;;;;3.28;1.60;;;24.00;99.90;;;;;;5201875;28;20043;-79
2022/06/08 11:51:46;;;;;;;3.60;1.52;;;24.30;99.90;;;;;;5213814;28;20031;-73
2022/06/08 11:54:32;;;;;;;5.10;1.80;;;24.60;99.90;;;;;;5197543;28;20107;-74
2022/06/08 11:57:17;;;;;;;4.38;1.70;;;25.00;99.90;;;;;;5196730;28;20458;-79
2022/06/08 11:59:52;;;;;;;3.90;1.40;;;25.20;99.90;;;;;;5223618;28;20415;-77
2022/06/08 12:02:38;;;;;;;5.00;1.92;;;25.10;99.90;;;;;;5204608;28;20091;-77
2022/06/08 12:05:12;;;;;;;5.22;1.50;;;25.10;99.90;;;;;;5209281;28;20378;-72
2022/06/08 12:08:04;;;;;;;6.07;1.77;;;24.70;99.90;;;;;;5210637;28;20053;-78
2022/06/08 12:10:38;;;;;;;5.15;1.92;;;25.00;99.90;;;;;;5201601;28;20026;-78
2022/06/08 12:13:25;;;;;;;4.57;2.00;;;25.40;99.90;;;;;;5188297;28;20041;-78
2022/06/08 12:16:06;;;;;;;4.88;2.13;;;25.00;99.90;;;;;;5207424;28;20025;-79
2022/06/08 12:18:47;;;;;;;5.07;1.60;;;24.90;99.90;;;;;;5208795;28;20030;-78
2022/06/08 12:21:37;;;;;;;2.42;1.50;;;24.30;99.90;;;;;;5208414;28;20040;-78
2022/06/08 12:24:17;;;;;;;3.03;1.42;;;24.10;99.90;;;;;;5209030;28;20117;-74
2022/06/08 12:27:02;;;;;;;4.70;1.80;;;24.60;99.90;;;;;;5208839;28;20041;-78
2022/06/08 12:29:47;;;;;;;5.30;1.70;;;24.20;99.90;;;;;;5208608;28;20033;-73
2022/06/08 12:32:29;;;;;;;2.63;1.98;;;23.90;99.90;;;;;;5195056;28;20450;-75
2022/06/08 12:35:18;;;;;;;3.50;1.42;;;23.90;99.90;;;;;;5208620;28;20037;-74
2022/06/08 12:38:14;;;;;;;5.82;2.20;;;23.70;99.90;;;;;;5208439;28;20021;-79
2022/06/08 12:41:38;;;;;;;6.40;1.95;;;24.40;99.90;;;;;;5208718;28;20026;-75
2022/06/08 12:44:24;;;;;;;3.15;1.60;;;24.70;99.90;;;;;;5208418;28;20029;-78
2022/06/08 12:47:18;;;;;;;9.70;2.30;;;24.70;99.90;;;;;;5208720;28;20076;-72
2022/06/08 12:50:08;;;;;;;4.88;1.67;;;25.00;99.90;;;;;;5208166;28;20354;-75
2022/06/08 12:52:43;;;;;;;4.40;1.77;;;23.20;99.90;;;;;;5205025;28;20045;-76
2022/06/08 12:55:22;;;;;;;4.13;1.65;;;23.40;99.90;;;;;;5208537;28;20048;-72
2022/06/08 12:57:58;;;;;;;7.85;1.95;;;23.00;99.90;;;;;;5207863;28;20025;-72
2022/06/08 13:00:36;;;;;;;6.10;1.90;;;23.30;99.90;;;;;;5208180;28;20389;-73
2022/06/08 13:03:29;;;;;;;6.95;2.08;;;23.90;99.90;;;;;;5187626;28;20028;-73
2022/06/08 13:06:04;;;;;;;6.30;1.70;;;24.10;99.90;;;;;;5185894;28;20034;-72
2022/06/08 13:08:38;;;;;;;6.40;2.03;;;23.50;99.90;;;;;;5203375;28;20028;-73
2022/06/08 13:11:19;;;;;;;5.20;1.90;;;23.60;99.90;;;;;;5223122;28;20025;-72
2022/06/08 13:13:55;;;;;;;4.32;1.50;;;24.30;99.90;;;;;;5228200;28;20044;-72
2022/06/08 13:16:33;;;;;;;6.20;1.95;;;24.10;99.90;;;;;;5224744;28;20163;-73
2022/06/08 13:19:13;;;;;;;4.47;1.65;;;24.70;99.90;;;;;;5207772;28;20493;-72
2022/06/08 13:21:49;;;;;;;2.75;1.80;;;24.60;99.90;;;;;;5207390;28;20175;-72
2022/06/08 13:24:23;;;;;;;4.90;1.80;;;24.80;99.90;;;;;;5207361;28;20038;-75
2022/06/08 13:27:04;;;;;;;6.30;1.85;;;24.10;99.90;;;;;;5207510;28;20370;-72
2022/06/08 13:29:42;;;;;;;5.97;1.80;;;24.60;99.90;;;;;;5207253;28;20423;-74
2022/06/08 13:32:20;;;;;;;3.47;1.45;;;23.80;99.90;;;;;;5207316;28;20029;-72
2022/06/08 13:34:53;;;;;;;4.05;1.73;;;23.80;99.90;;;;;;5207308;28;20034;-72
2022/06/08 13:37:41;;;;;;;4.82;1.75;;;24.30;99.90;;;;;;5207802;28;20022;-74
2022/06/08 13:40:25;;;;;;;5.00;1.88;;;24.20;99.90;;;;;;5207406;28;20044;-75
2022/06/08 13:42:59;;;;;;;5.07;2.15;;;23.30;99.90;;;;;;5207116;28;20065;-73
2022/06/08 13:45:45;;;;;;;5.25;2.17;;;23.30;99.90;;;;;;5207565;28;20032;-71
2022/06/08 13:48:22;;;;;;;8.05;2.00;;;23.70;99.90;;;;;;5206853;28;20380;-72